sensor_id;sensor_type;location;lat;lon;timestamp;pressure;altitude;pressure_sealevel;temperature;humidity
19236;BME280;9752;54.270;12.470;2024-03-23T00:55:46;101069.00;;;6.33;100.00
19236;BME280;9752;54.270;12.470;2024-03-23T01:00:47;101055.25;;;6.33;100.00
19236;BME280;9752;54.270;12.470;2024-03-23T01:05:49;101060.38;;;6.33;100.00
19236;BME280;9752;54.270;12.470;2024-03-23T01:10:56;101055.91;;;6.30;100.00
19236;BME280;9752;54.270;12.470;2024-03-23T01:15:57;101048.19;;;6.20;100.00
19236;BME280;9752;54.270;12.470;2024-03-23T01:20:59;101031.84;;;6.19;100.00
19236;BME280;9752;54.270;12.470;2024-03-23T01:26:02;101031.09;;;6.10;100.00
19236;BME280;9752;54.270;12.470;2024-03-23T01:31:04;101026.72;;;6.09;100.00
19236;BME280;9752;54.270;12.470;2024-03-23T01:36:05;101029.81;;;6.05;100.00
19236;BME280;9752;54.270;12.470;2024-03-23T01:41:08;101018.88;;;5.97;100.00
19236;BME280;9752;54.270;12.470;2024-03-23T01:46:10;101015.91;;;5.93;100.00
19236;BME280;9752;54.270;12.470;2024-03-23T01:51:12;101022.38;;;5.98;100.00
19236;BME280;9752;54.270;12.470;2024-03-23T01:56:16;101019.00;;;5.89;100.00
19236;BME280;9752;54.270;12.470;2024-03-23T02:01:17;101009.72;;;5.91;100.00
19236;BME280;9752;54.270;12.470;2024-03-23T02:06:19;100999.81;;;5.85;100.00
19236;BME280;9752;54.270;12.470;2024-03-23T02:11:23;101007.16;;;5.80;100.00
19236;BME280;9752;54.270;12.470;2024-03-23T02:16:24;100988.78;;;5.76;100.00
19236;BME280;9752;54.270;12.470;2024-03-23T02:21:26;100990.19;;;5.72;100.00
19236;BME280;9752;54.270;12.470;2024-03-23T02:26:33;100980.69;;;5.71;100.00
19236;BME280;9752;54.270;12.470;2024-03-23T02:31:35;100979.63;;;5.69;100.00
19236;BME280;9752;54.270;12.470;2024-03-23T02:36:37;100982.63;;;5.63;100.00
19236;BME280;9752;54.270;12.470;2024-03-23T02:41:40;100980.44;;;5.58;100.00
19236;BME280;9752;54.270;12.470;2024-03-23T02:46:41;100976.06;;;5.57;100.00
19236;BME280;9752;54.270;12.470;2024-03-23T02:51:43;100967.84;;;5.51;100.00
19236;BME280;9752;54.270;12.470;2024-03-23T02:56:46;100972.97;;;5.40;100.00
19236;BME280;9752;54.270;12.470;2024-03-23T03:01:48;100967.84;;;5.30;100.00
19236;BME280;9752;54.270;12.470;2024-03-23T03:06:50;100957.28;;;5.27;100.00
19236;BME280;9752;54.270;12.470;2024-03-23T03:11:52;100957.31;;;5.17;100.00
19236;BME280;9752;54.270;12.470;2024-03-23T03:16:54;100961.53;;;5.06;100.00
19236;BME280;9752;54.270;12.470;2024-03-23T03:21:56;100955.38;;;4.94;100.00
19236;BME280;9752;54.270;12.470;2024-03-23T03:26:59;100937.47;;;4.85;100.00
19236;BME280;9752;54.270;12.470;2024-03-23T03:32:00;100932.09;;;4.82;100.00
19236;BME280;9752;54.270;12.470;2024-03-23T03:37:02;100926.03;;;4.81;100.00
19236;BME280;9752;54.270;12.470;2024-03-23T03:42:06;100934.41;;;4.79;100.00
19236;BME280;9752;54.270;12.470;2024-03-23T03:47:08;100933.47;;;4.68;100.00
19236;BME280;9752;54.270;12.470;2024-03-23T03:52:09;100940.50;;;4.50;100.00
19236;BME280;9752;54.270;12.470;2024-03-23T03:57:13;100938.81;;;4.40;100.00
19236;BME280;9752;54.270;12.470;2024-03-23T04:02:15;100932.72;;;4.29;100.00
19236;BME280;9752;54.270;12.470;2024-03-23T04:07:16;100938.72;;;4.20;100.00
19236;BME280;9752;54.270;12.470;2024-03-23T04:12:20;100950.25;;;4.15;100.00
19236;BME280;9752;54.270;12.470;2024-03-23T04:17:21;100966.59;;;3.96;100.00
19236;BME280;9752;54.270;12.470;2024-03-23T04:22:25;100979.06;;;4.02;100.00
19236;BME280;9752;54.270;12.470;2024-03-23T04:27:28;100972.88;;;3.70;100.00
19236;BME280;9752;54.270;12.470;2024-03-23T04:32:30;100964.28;;;3.51;100.00
19236;BME280;9752;54.270;12.470;2024-03-23T04:37:32;100973.25;;;3.37;100.00
19236;BME280;9752;54.270;12.470;2024-03-23T04:42:35;100977.69;;;3.29;100.00
19236;BME280;9752;54.270;12.470;2024-03-23T04:47:37;100988.97;;;3.31;100.00
19236;BME280;9752;54.270;12.470;2024-03-23T04:52:39;101023.75;;;3.19;100.00
19236;BME280;9752;54.270;12.470;2024-03-23T04:57:45;101037.63;;;3.12;100.00
19236;BME280;9752;54.270;12.470;2024-03-23T05:02:46;101051.47;;;3.23;100.00
19236;BME280;9752;54.270;12.470;2024-03-23T05:07:48;101055.38;;;3.28;100.00
19236;BME280;9752;54.270;12.470;2024-03-23T05:12:51;101042.41;;;3.27;100.00
19236;BME280;9752;54.270;12.470;2024-03-23T05:17:52;101046.56;;;3.35;100.00
19236;BME280;9752;54.270;12.470;2024-03-23T05:22:55;101046.56;;;3.35;100.00
19236;BME280;9752;54.270;12.470;2024-03-23T05:27:57;101063.13;;;3.39;100.00
19236;BME280;9752;54.270;12.470;2024-03-23T05:32:59;101054.56;;;3.38;100.00
19236;BME280;9752;54.270;12.470;2024-03-23T05:38:01;101059.72;;;3.57;100.00
19236;BME280;9752;54.270;12.470;2024-03-23T05:43:04;101075.53;;;3.62;100.00
19236;BME280;9752;54.270;12.470;2024-03-23T05:48:06;101083.38;;;3.63;100.00
19236;BME280;9752;54.270;12.470;2024-03-23T05:53:08;101097.53;;;3.68;100.00
19236;BME280;9752;54.270;12.470;2024-03-23T05:58:11;101100.69;;;3.66;100.00
19236;BME280;9752;54.270;12.470;2024-03-23T06:03:12;101091.63;;;3.69;100.00
19236;BME280;9752;54.270;12.470;2024-03-23T06:08:14;101094.50;;;3.91;100.00
19236;BME280;9752;54.270;12.470;2024-03-23T06:13:17;101103.25;;;4.32;100.00
19236;BME280;9752;54.270;12.470;2024-03-23T06:18:19;101110.22;;;4.62;100.00
19236;BME280;9752;54.270;12.470;2024-03-23T06:23:20;101128.84;;;4.88;100.00
19236;BME280;9752;54.270;12.470;2024-03-23T06:28:23;101134.81;;;5.08;100.00
19236;BME280;9752;54.270;12.470;2024-03-23T06:33:25;101148.28;;;4.95;100.00
19236;BME280;9752;54.270;12.470;2024-03-23T06:38:27;101148.53;;;4.98;100.00
19236;BME280;9752;54.270;12.470;2024-03-23T06:43:29;101144.41;;;5.30;100.00
19236;BME280;9752;54.270;12.470;2024-03-23T06:48:31;101159.28;;;5.83;100.00
19236;BME280;9752;54.270;12.470;2024-03-23T06:53:33;101162.81;;;6.15;100.00
19236;BME280;9752;54.270;12.470;2024-03-23T06:58:35;101140.00;;;6.19;100.00
19236;BME280;9752;54.270;12.470;2024-03-23T07:03:37;101113.09;;;6.16;100.00
19236;BME280;9752;54.270;12.470;2024-03-23T07:08:38;101082.34;;;6.07;100.00
19236;BME280;9752;54.270;12.470;2024-03-23T07:13:41;101083.03;;;6.37;100.00
19236;BME280;9752;54.270;12.470;2024-03-23T07:18:43;101054.03;;;6.50;100.00
19236;BME280;9752;54.270;12.470;2024-03-23T07:23:45;101030.97;;;6.51;100.00
19236;BME280;9752;54.270;12.470;2024-03-23T07:28:48;101000.63;;;6.81;100.00
19236;BME280;9752;54.270;12.470;2024-03-23T07:33:49;100925.25;;;6.61;100.00
19236;BME280;9752;54.270;12.470;2024-03-23T07:38:51;100902.09;;;6.73;100.00
19236;BME280;9752;54.270;12.470;2024-03-23T07:43:55;100885.19;;;6.77;100.00
19236;BME280;9752;54.270;12.470;2024-03-23T07:48:56;100881.97;;;6.79;100.00
19236;BME280;9752;54.270;12.470;2024-03-23T07:53:58;100844.63;;;6.86;100.00
19236;BME280;9752;54.270;12.470;2024-03-23T07:59:01;100837.63;;;7.19;100.00
19236;BME280;9752;54.270;12.470;2024-03-23T08:04:03;100822.81;;;7.28;100.00
19236;BME280;9752;54.270;12.470;2024-03-23T08:09:06;100804.75;;;7.28;100.00
19236;BME280;9752;54.270;12.470;2024-03-23T08:14:09;100791.63;;;7.72;100.00
19236;BME280;9752;54.270;12.470;2024-03-23T08:19:10;100773.88;;;7.65;100.00
19236;BME280;9752;54.270;12.470;2024-03-23T08:24:12;100756.75;;;7.91;100.00
19236;BME280;9752;54.270;12.470;2024-03-23T08:29:15;100741.00;;;7.99;100.00
19236;BME280;9752;54.270;12.470;2024-03-23T08:34:17;100728.63;;;7.82;100.00
19236;BME280;9752;54.270;12.470;2024-03-23T08:39:19;100718.09;;;7.67;100.00
19236;BME280;9752;54.270;12.470;2024-03-23T08:44:22;100702.84;;;7.95;100.00
19236;BME280;9752;54.270;12.470;2024-03-23T08:49:24;100689.25;;;7.98;100.00
19236;BME280;9752;54.270;12.470;2024-03-23T08:54:25;100689.63;;;8.16;100.00
19236;BME280;9752;54.270;12.470;2024-03-23T08:59:29;100673.66;;;8.35;100.00
19236;BME280;9752;54.270;12.470;2024-03-23T09:04:30;100658.06;;;7.95;100.00
19236;BME280;9752;54.270;12.470;2024-03-23T09:09:32;100653.97;;;7.98;100.00
19236;BME280;9752;54.270;12.470;2024-03-23T09:14:35;100650.13;;;8.05;100.00
19236;BME280;9752;54.270;12.470;2024-03-23T09:19:36;100650.53;;;8.11;100.00
19236;BME280;9752;54.270;12.470;2024-03-23T09:24:38;100645.50;;;7.88;100.00
19236;BME280;9752;54.270;12.470;2024-03-23T09:29:41;100632.22;;;7.95;100.00
19236;BME280;9752;54.270;12.470;2024-03-23T09:34:43;100630.72;;;8.24;100.00
19236;BME280;9752;54.270;12.470;2024-03-23T09:39:44;100624.75;;;8.38;100.00
19236;BME280;9752;54.270;12.470;2024-03-23T09:44:48;100616.25;;;8.79;100.00
19236;BME280;9752;54.270;12.470;2024-03-23T09:49:52;100610.50;;;8.56;100.00
19236;BME280;9752;54.270;12.470;2024-03-23T09:54:53;100594.56;;;8.90;100.00
19236;BME280;9752;54.270;12.470;2024-03-23T09:59:56;100582.03;;;8.70;100.00
19236;BME280;9752;54.270;12.470;2024-03-23T10:04:58;100583.16;;;9.15;100.00
19236;BME280;9752;54.270;12.470;2024-03-23T10:10:10;100572.81;;;9.15;100.00
19236;BME280;9752;54.270;12.470;2024-03-23T10:15:18;100559.09;;;9.03;100.00
19236;BME280;9752;54.270;12.470;2024-03-23T10:20:20;100547.50;;;9.24;100.00
19236;BME280;9752;54.270;12.470;2024-03-23T10:25:23;100550.97;;;9.25;100.00
19236;BME280;9752;54.270;12.470;2024-03-23T10:30:26;100538.56;;;9.19;100.00
19236;BME280;9752;54.270;12.470;2024-03-23T10:35:28;100531.59;;;9.18;100.00
19236;BME280;9752;54.270;12.470;2024-03-23T10:40:30;100511.72;;;9.60;100.00
19236;BME280;9752;54.270;12.470;2024-03-23T10:45:32;100502.25;;;9.75;100.00
19236;BME280;9752;54.270;12.470;2024-03-23T10:50:34;100486.75;;;10.22;100.00
19236;BME280;9752;54.270;12.470;2024-03-23T10:55:36;100484.97;;;10.21;100.00
19236;BME280;9752;54.270;12.470;2024-03-23T11:00:39;100490.44;;;10.10;100.00
19236;BME280;9752;54.270;12.470;2024-03-23T11:05:46;100471.50;;;9.82;100.00
19236;BME280;9752;54.270;12.470;2024-03-23T11:10:48;100470.72;;;9.68;100.00
19236;BME280;9752;54.270;12.470;2024-03-23T11:15:51;100464.28;;;9.61;100.00
19236;BME280;9752;54.270;12.470;2024-03-23T11:20:55;100462.13;;;9.54;100.00
19236;BME280;9752;54.270;12.470;2024-03-23T11:25:56;100464.16;;;10.04;100.00
19236;BME280;9752;54.270;12.470;2024-03-23T11:30:59;100457.13;;;9.57;100.00
19236;BME280;9752;54.270;12.470;2024-03-23T11:36:01;100465.19;;;9.47;100.00
19236;BME280;9752;54.270;12.470;2024-03-23T11:41:03;100453.38;;;9.67;100.00
19236;BME280;9752;54.270;12.470;2024-03-23T11:46:07;100454.91;;;9.78;100.00
19236;BME280;9752;54.270;12.470;2024-03-23T11:51:09;100440.13;;;9.92;100.00
19236;BME280;9752;54.270;12.470;2024-03-23T11:56:11;100449.72;;;9.78;100.00
19236;BME280;9752;54.270;12.470;2024-03-23T12:01:14;100435.97;;;9.79;100.00
19236;BME280;9752;54.270;12.470;2024-03-23T12:06:19;100458.47;;;9.95;100.00
19236;BME280;9752;54.270;12.470;2024-03-23T12:11:21;100461.44;;;9.71;100.00
19236;BME280;9752;54.270;12.470;2024-03-23T12:16:25;100493.22;;;9.11;100.00
19236;BME280;9752;54.270;12.470;2024-03-23T12:21:27;100506.03;;;8.81;100.00
19236;BME280;9752;54.270;12.470;2024-03-23T12:26:29;100518.38;;;7.92;100.00
19236;BME280;9752;54.270;12.470;2024-03-23T12:31:32;100508.53;;;7.86;100.00
19236;BME280;9752;54.270;12.470;2024-03-23T12:36:33;100498.41;;;7.12;100.00
19236;BME280;9752;54.270;12.470;2024-03-23T12:41:35;100486.19;;;8.40;100.00
19236;BME280;9752;54.270;12.470;2024-03-23T12:46:38;100483.28;;;7.69;100.00
19236;BME280;9752;54.270;12.470;2024-03-23T12:51:47;100485.50;;;7.37;100.00
19236;BME280;9752;54.270;12.470;2024-03-23T12:56:49;100483.31;;;7.95;100.00
19236;BME280;9752;54.270;12.470;2024-03-23T13:01:53;100488.59;;;7.84;100.00
19236;BME280;9752;54.270;12.470;2024-03-23T13:06:55;100479.88;;;8.08;100.00
19236;BME280;9752;54.270;12.470;2024-03-23T13:11:56;100490.13;;;7.68;100.00
19236;BME280;9752;54.270;12.470;2024-03-23T13:16:59;100487.19;;;7.89;100.00
19236;BME280;9752;54.270;12.470;2024-03-23T13:22:02;100491.19;;;7.97;100.00
19236;BME280;9752;54.270;12.470;2024-03-23T13:27:04;100456.25;;;8.57;100.00
19236;BME280;9752;54.270;12.470;2024-03-23T13:32:09;100469.44;;;7.93;100.00
19236;BME280;9752;54.270;12.470;2024-03-23T13:37:10;100448.13;;;9.35;100.00
19236;BME280;9752;54.270;12.470;2024-03-23T13:42:12;100466.59;;;8.98;100.00
19236;BME280;9752;54.270;12.470;2024-03-23T13:47:17;100503.13;;;8.48;100.00
19236;BME280;9752;54.270;12.470;2024-03-23T13:52:19;100493.50;;;7.29;100.00
19236;BME280;9752;54.270;12.470;2024-03-23T13:57:23;100514.03;;;5.82;100.00
19236;BME280;9752;54.270;12.470;2024-03-23T14:02:27;100519.13;;;5.37;100.00
19236;BME280;9752;54.270;12.470;2024-03-23T14:07:29;100508.19;;;5.05;100.00
19236;BME280;9752;54.270;12.470;2024-03-23T14:12:30;100468.69;;;6.32;100.00
19236;BME280;9752;54.270;12.470;2024-03-23T14:17:33;100462.06;;;7.09;100.00
19236;BME280;9752;54.270;12.470;2024-03-23T14:22:35;100466.53;;;7.89;100.00
19236;BME280;9752;54.270;12.470;2024-03-23T14:27:36;100472.16;;;8.36;100.00
19236;BME280;9752;54.270;12.470;2024-03-23T14:32:39;100472.13;;;7.95;100.00
19236;BME280;9752;54.270;12.470;2024-03-23T14:37:41;100488.19;;;8.04;100.00
19236;BME280;9752;54.270;12.470;2024-03-23T14:42:43;100493.16;;;7.88;100.00
19236;BME280;9752;54.270;12.470;2024-03-23T14:47:46;100503.59;;;7.89;100.00
19236;BME280;9752;54.270;12.470;2024-03-23T14:52:47;100487.59;;;8.08;100.00
19236;BME280;9752;54.270;12.470;2024-03-23T14:57:49;100494.09;;;7.63;100.00
19236;BME280;9752;54.270;12.470;2024-03-23T15:02:53;100494.25;;;7.53;100.00
19236;BME280;9752;54.270;12.470;2024-03-23T15:07:54;100491.25;;;7.08;100.00
19236;BME280;9752;54.270;12.470;2024-03-23T15:12:56;100502.75;;;6.88;100.00
19236;BME280;9752;54.270;12.470;2024-03-23T15:17:59;100512.06;;;6.86;100.00
19236;BME280;9752;54.270;12.470;2024-03-23T15:23:01;100509.50;;;7.11;100.00
19236;BME280;9752;54.270;12.470;2024-03-23T15:28:03;100505.09;;;7.60;100.00
19236;BME280;9752;54.270;12.470;2024-03-23T15:33:06;100502.13;;;8.59;100.00
19236;BME280;9752;54.270;12.470;2024-03-23T15:38:08;100471.66;;;10.00;100.00
19236;BME280;9752;54.270;12.470;2024-03-23T15:43:10;100459.34;;;11.39;100.00
19236;BME280;9752;54.270;12.470;2024-03-23T15:48:13;100465.78;;;11.12;100.00
19236;BME280;9752;54.270;12.470;2024-03-23T15:53:14;100453.53;;;11.61;100.00
19236;BME280;9752;54.270;12.470;2024-03-23T15:58:16;100469.34;;;10.04;100.00
19236;BME280;9752;54.270;12.470;2024-03-23T16:03:19;100477.66;;;9.54;100.00
19236;BME280;9752;54.270;12.470;2024-03-23T16:08:21;100459.97;;;10.52;100.00
19236;BME280;9752;54.270;12.470;2024-03-23T16:13:23;100459.78;;;10.97;100.00
19236;BME280;9752;54.270;12.470;2024-03-23T16:18:27;100468.72;;;8.49;100.00
19236;BME280;9752;54.270;12.470;2024-03-23T16:23:29;100478.94;;;8.89;100.00
19236;BME280;9752;54.270;12.470;2024-03-23T16:28:32;100481.75;;;7.46;100.00
19236;BME280;9752;54.270;12.470;2024-03-23T16:33:35;100478.47;;;7.10;100.00
19236;BME280;9752;54.270;12.470;2024-03-23T16:38:38;100478.75;;;6.89;100.00
19236;BME280;9752;54.270;12.470;2024-03-23T16:43:40;100480.69;;;6.80;100.00
19236;BME280;9752;54.270;12.470;2024-03-23T16:48:44;100471.06;;;6.77;100.00
19236;BME280;9752;54.270;12.470;2024-03-23T16:53:46;100471.66;;;6.61;100.00
19236;BME280;9752;54.270;12.470;2024-03-23T16:58:47;100483.78;;;6.62;100.00
19236;BME280;9752;54.270;12.470;2024-03-23T17:03:52;100501.94;;;6.64;100.00
19236;BME280;9752;54.270;12.470;2024-03-23T17:08:54;100508.22;;;5.97;100.00
19236;BME280;9752;54.270;12.470;2024-03-23T17:13:55;100502.34;;;5.64;100.00
19236;BME280;9752;54.270;12.470;2024-03-23T17:18:58;100470.22;;;5.71;100.00
19236;BME280;9752;54.270;12.470;2024-03-23T17:24:00;100473.22;;;5.41;100.00
19236;BME280;9752;54.270;12.470;2024-03-23T17:29:02;100469.72;;;4.95;100.00
19236;BME280;9752;54.270;12.470;2024-03-23T17:34:06;100476.22;;;4.58;100.00
19236;BME280;9752;54.270;12.470;2024-03-23T17:39:09;100471.84;;;4.35;100.00
19236;BME280;9752;54.270;12.470;2024-03-23T17:44:13;100480.41;;;4.03;100.00
19236;BME280;9752;54.270;12.470;2024-03-23T17:49:16;100474.75;;;4.07;100.00
19236;BME280;9752;54.270;12.470;2024-03-23T17:54:17;100479.28;;;3.99;100.00
19236;BME280;9752;54.270;12.470;2024-03-23T17:59:20;100475.97;;;3.90;100.00
19236;BME280;9752;54.270;12.470;2024-03-23T18:04:24;100467.63;;;3.82;100.00
19236;BME280;9752;54.270;12.470;2024-03-23T18:09:25;100460.69;;;3.81;100.00
19236;BME280;9752;54.270;12.470;2024-03-23T18:14:27;100457.78;;;3.77;100.00
19236;BME280;9752;54.270;12.470;2024-03-23T18:19:30;100455.75;;;3.72;100.00
19236;BME280;9752;54.270;12.470;2024-03-23T18:24:33;100465.25;;;3.63;100.00
19236;BME280;9752;54.270;12.470;2024-03-23T18:29:34;100462.81;;;3.65;100.00
19236;BME280;9752;54.270;12.470;2024-03-23T18:34:38;100455.09;;;3.55;100.00
19236;BME280;9752;54.270;12.470;2024-03-23T18:39:39;100464.84;;;3.69;100.00
19236;BME280;9752;54.270;12.470;2024-03-23T18:44:41;100469.88;;;3.57;100.00
19236;BME280;9752;54.270;12.470;2024-03-23T18:49:44;100469.88;;;3.57;100.00
19236;BME280;9752;54.270;12.470;2024-03-23T18:54:46;100468.97;;;3.57;100.00
19236;BME280;9752;54.270;12.470;2024-03-23T18:59:48;100479.47;;;3.39;100.00
19236;BME280;9752;54.270;12.470;2024-03-23T19:04:52;100479.47;;;3.70;100.00
19236;BME280;9752;54.270;12.470;2024-03-23T19:09:55;100482.56;;;3.56;100.00
19236;BME280;9752;54.270;12.470;2024-03-23T19:14:57;100483.31;;;3.65;100.00
19236;BME280;9752;54.270;12.470;2024-03-23T19:20:00;100480.97;;;3.88;100.00
19236;BME280;9752;54.270;12.470;2024-03-23T19:25:01;100473.13;;;3.97;100.00
19236;BME280;9752;54.270;12.470;2024-03-23T19:30:05;100469.56;;;4.27;100.00
19236;BME280;9752;54.270;12.470;2024-03-23T19:35:08;100475.66;;;4.40;100.00
19236;BME280;9752;54.270;12.470;2024-03-23T19:40:11;100474.25;;;4.65;100.00
19236;BME280;9752;54.270;12.470;2024-03-23T19:45:13;100471.25;;;4.49;100.00
19236;BME280;9752;54.270;12.470;2024-03-23T19:50:18;100464.50;;;4.07;100.00
19236;BME280;9752;54.270;12.470;2024-03-23T19:55:21;100474.41;;;3.92;100.00
19236;BME280;9752;54.270;12.470;2024-03-23T20:00:22;100480.59;;;3.84;100.00
19236;BME280;9752;54.270;12.470;2024-03-23T20:05:25;100476.78;;;3.68;100.00
19236;BME280;9752;54.270;12.470;2024-03-23T20:10:28;100481.28;;;3.61;100.00
19236;BME280;9752;54.270;12.470;2024-03-23T20:15:29;100480.22;;;3.69;100.00
19236;BME280;9752;54.270;12.470;2024-03-23T20:20:32;100482.09;;;3.92;100.00
19236;BME280;9752;54.270;12.470;2024-03-23T20:25:34;100472.41;;;3.78;100.00
19236;BME280;9752;54.270;12.470;2024-03-23T20:30:35;100473.06;;;3.55;100.00
19236;BME280;9752;54.270;12.470;2024-03-23T20:35:45;100470.66;;;3.25;100.00
19236;BME280;9752;54.270;12.470;2024-03-23T20:40:51;100468.34;;;3.18;100.00
19236;BME280;9752;54.270;12.470;2024-03-23T20:45:56;100462.03;;;3.15;100.00
19236;BME280;9752;54.270;12.470;2024-03-23T20:51:01;100468.34;;;3.18;100.00
19236;BME280;9752;54.270;12.470;2024-03-23T20:56:04;100470.50;;;3.03;100.00
19236;BME280;9752;54.270;12.470;2024-03-23T21:01:06;100470.50;;;3.03;100.00
19236;BME280;9752;54.270;12.470;2024-03-23T21:06:11;100473.31;;;3.06;100.00
19236;BME280;9752;54.270;12.470;2024-03-23T21:11:12;100476.41;;;3.02;100.00
19236;BME280;9752;54.270;12.470;2024-03-23T21:16:16;100476.78;;;2.97;100.00
19236;BME280;9752;54.270;12.470;2024-03-23T21:21:19;100474.88;;;3.04;100.00
19236;BME280;9752;54.270;12.470;2024-03-23T21:26:20;100481.75;;;3.05;100.00
19236;BME280;9752;54.270;12.470;2024-03-23T21:31:22;100479.88;;;3.13;100.00
19236;BME280;9752;54.270;12.470;2024-03-23T21:36:25;100478.22;;;3.13;100.00
19236;BME280;9752;54.270;12.470;2024-03-23T21:41:26;100478.19;;;3.03;100.00
19236;BME280;9752;54.270;12.470;2024-03-23T21:46:28;100482.41;;;2.92;100.00
19236;BME280;9752;54.270;12.470;2024-03-23T21:51:31;100487.16;;;2.98;100.00
19236;BME280;9752;54.270;12.470;2024-03-23T21:56:35;100480.50;;;3.00;100.00
19236;BME280;9752;54.270;12.470;2024-03-23T22:01:36;100473.97;;;3.04;100.00
19236;BME280;9752;54.270;12.470;2024-03-23T22:06:39;100480.59;;;2.81;100.00
19236;BME280;9752;54.270;12.470;2024-03-23T22:11:41;100479.38;;;2.67;100.00
19236;BME280;9752;54.270;12.470;2024-03-23T22:16:43;100472.19;;;2.53;100.00
19236;BME280;9752;54.270;12.470;2024-03-23T22:21:46;100467.06;;;2.53;100.00
19236;BME280;9752;54.270;12.470;2024-03-23T22:26:48;100472.50;;;2.66;100.00
19236;BME280;9752;54.270;12.470;2024-03-23T22:31:49;100474.03;;;2.74;100.00
19236;BME280;9752;54.270;12.470;2024-03-23T22:36:53;100472.41;;;2.96;100.00
19236;BME280;9752;54.270;12.470;2024-03-23T22:41:55;100476.91;;;2.98;100.00
19236;BME280;9752;54.270;12.470;2024-03-23T22:46:56;100482.16;;;3.00;100.00
19236;BME280;9752;54.270;12.470;2024-03-23T22:51:59;100477.56;;;3.06;100.00
19236;BME280;9752;54.270;12.470;2024-03-23T22:57:01;100469.63;;;3.13;100.00
19236;BME280;9752;54.270;12.470;2024-03-23T23:02:02;100468.19;;;3.17;100.00
19236;BME280;9752;54.270;12.470;2024-03-23T23:07:05;100465.41;;;3.13;100.00
19236;BME280;9752;54.270;12.470;2024-03-23T23:12:07;100457.94;;;3.06;100.00
19236;BME280;9752;54.270;12.470;2024-03-23T23:17:09;100458.84;;;3.07;100.00
19236;BME280;9752;54.270;12.470;2024-03-23T23:22:12;100457.19;;;3.07;100.00
19236;BME280;9752;54.270;12.470;2024-03-23T23:27:13;100449.00;;;3.11;100.00
19236;BME280;9752;54.270;12.470;2024-03-23T23:32:15;100448.72;;;3.19;100.00
19236;BME280;9752;54.270;12.470;2024-03-23T23:37:18;100440.78;;;3.26;100.00
19236;BME280;9752;54.270;12.470;2024-03-23T23:42:20;100445.66;;;3.23;100.00
19236;BME280;9752;54.270;12.470;2024-03-23T23:47:22;100443.59;;;3.29;100.00
19236;BME280;9752;54.270;12.470;2024-03-23T23:52:25;100436.19;;;3.32;100.00
19236;BME280;9752;54.270;12.470;2024-03-23T23:57:26;100445.41;;;3.40;100.00
